Radar AviationWeather DUATS TFRs Wunderground Accuweather Weather.com

alt : Radar

TAFs

KCLE 242332Z 2500/2606 02010KT P6SM SKC
   FM250200 06005KT P6SM SKC
   FM251600 08010KT P6SM SKC
KTOL 242332Z 2500/2524 07006KT P6SM SKC
   FM251600 12008KT P6SM SKC
KFDY 242332Z 2500/2524 06006KT P6SM SKC
   FM251600 12008KT P6SM SKC
KJXN 242322Z 2500/2524 05006KT P6SM SKC
   FM251400 13005KT P6SM FEW250
KDTW 242321Z 2500/2606 05003KT P6SM SKC
   FM251100 11004KT P6SM SCT030
   FM251600 11007KT P6SM SCT250
   FM260200 14007KT P6SM SCT060 BKN150
KFWA 242320Z 2500/2524 07005KT P6SM SKC
   FM251400 11006KT P6SM SCT040
   FM252000 14008KT P6SM SCT050 BKN250

METARs

KJXN 242356Z 08006KT 10SM CLR 17/12 A3019 RMK AO2 SLP224 T01670122 10222 20167 58001
KDUH 242354Z AUTO 00000KT 10SM CLR 17/13 A3020 RMK AO2 T01730127 10217 20173
KFWA 242354Z 06009KT 10SM FEW250 21/14 A3016 RMK AO2 SLP209 T02060144 10244 20206 56001
KDTW 242353Z 10003KT 10SM FEW030 18/06 A3021 RMK AO2 SLP229 T01830061 10211 20183 58000
KFDY 242353Z AUTO 05011KT 10SM CLR 20/13 A3017 RMK AO2 SLP210 T02000128 10239 20200 53001
KTDZ 242353Z AUTO 07005KT 10SM CLR 18/13 A3020 RMK AO2 SLP226 T01780128 10211 20178 53000
KTOL 242352Z 10003KT 10SM CLR 16/14 A3019 RMK AO2 SLP223 T01560139 10217 20156 53001
KCLE 242351Z 04011KT 10SM CLR 18/09 A3021 RMK AO2 SLP229 T01780089 10222 20178 52000 $

alt : Satellite

alt : TFRs